sensor_id;sensor_type;location;lat;lon;timestamp;temperature;humidity
39951;DHT22;25629;51.444;-2.606;2023-05-07T00:02:02;12.90;99.90
39951;DHT22;25629;51.444;-2.606;2023-05-07T00:04:29;12.80;99.90
39951;DHT22;25629;51.444;-2.606;2023-05-07T00:07:01;12.80;99.90
39951;DHT22;25629;51.444;-2.606;2023-05-07T00:09:26;12.80;99.90
39951;DHT22;25629;51.444;-2.606;2023-05-07T00:11:52;12.80;99.90
39951;DHT22;25629;51.444;-2.606;2023-05-07T00:14:18;12.80;99.90
39951;DHT22;25629;51.444;-2.606;2023-05-07T00:16:43;12.80;99.90
39951;DHT22;25629;51.444;-2.606;2023-05-07T00:19:09;12.80;99.90
39951;DHT22;25629;51.444;-2.606;2023-05-07T00:21:34;12.80;99.90
39951;DHT22;25629;51.444;-2.606;2023-05-07T00:24:00;12.80;99.90
39951;DHT22;25629;51.444;-2.606;2023-05-07T00:26:26;12.80;99.90
39951;DHT22;25629;51.444;-2.606;2023-05-07T00:28:51;12.80;99.90
39951;DHT22;25629;51.444;-2.606;2023-05-07T00:31:17;12.90;99.90
39951;DHT22;25629;51.444;-2.606;2023-05-07T00:33:42;12.90;99.90
39951;DHT22;25629;51.444;-2.606;2023-05-07T00:36:08;12.80;99.90
39951;DHT22;25629;51.444;-2.606;2023-05-07T00:38:33;12.90;99.90
39951;DHT22;25629;51.444;-2.606;2023-05-07T00:40:59;12.80;99.90
39951;DHT22;25629;51.444;-2.606;2023-05-07T00:43:24;12.80;99.90
39951;DHT22;25629;51.444;-2.606;2023-05-07T00:45:50;12.80;99.90
39951;DHT22;25629;51.444;-2.606;2023-05-07T00:48:16;12.80;99.90
39951;DHT22;25629;51.444;-2.606;2023-05-07T00:50:42;12.80;99.90
39951;DHT22;25629;51.444;-2.606;2023-05-07T00:53:08;12.80;99.90
39951;DHT22;25629;51.444;-2.606;2023-05-07T00:55:34;12.90;99.90
39951;DHT22;25629;51.444;-2.606;2023-05-07T00:58:00;12.80;99.90
39951;DHT22;25629;51.444;-2.606;2023-05-07T01:00:26;12.80;99.90
39951;DHT22;25629;51.444;-2.606;2023-05-07T01:02:52;12.80;99.90
39951;DHT22;25629;51.444;-2.606;2023-05-07T01:05:20;12.80;99.90
39951;DHT22;25629;51.444;-2.606;2023-05-07T01:07:47;12.80;99.90
39951;DHT22;25629;51.444;-2.606;2023-05-07T01:10:12;12.80;99.90
39951;DHT22;25629;51.444;-2.606;2023-05-07T01:12:39;12.90;99.90
39951;DHT22;25629;51.444;-2.606;2023-05-07T01:15:05;12.90;99.90
39951;DHT22;25629;51.444;-2.606;2023-05-07T01:17:34;12.90;99.90
39951;DHT22;25629;51.444;-2.606;2023-05-07T01:20:00;13.00;99.90
39951;DHT22;25629;51.444;-2.606;2023-05-07T01:22:33;13.00;99.90
39951;DHT22;25629;51.444;-2.606;2023-05-07T01:24:59;13.00;99.90
39951;DHT22;25629;51.444;-2.606;2023-05-07T01:27:27;12.90;99.90
39951;DHT22;25629;51.444;-2.606;2023-05-07T01:29:52;12.90;99.90
39951;DHT22;25629;51.444;-2.606;2023-05-07T01:32:23;12.80;99.90
39951;DHT22;25629;51.444;-2.606;2023-05-07T01:34:49;12.80;99.90
39951;DHT22;25629;51.444;-2.606;2023-05-07T01:37:16;12.80;99.90
39951;DHT22;25629;51.444;-2.606;2023-05-07T01:39:42;12.70;99.90
39951;DHT22;25629;51.444;-2.606;2023-05-07T01:42:07;12.70;99.90
39951;DHT22;25629;51.444;-2.606;2023-05-07T01:44:33;12.70;99.90
39951;DHT22;25629;51.444;-2.606;2023-05-07T01:46:59;12.70;99.90
39951;DHT22;25629;51.444;-2.606;2023-05-07T01:49:24;12.70;99.90
39951;DHT22;25629;51.444;-2.606;2023-05-07T01:51:51;12.70;99.90
39951;DHT22;25629;51.444;-2.606;2023-05-07T01:54:16;12.80;99.90
39951;DHT22;25629;51.444;-2.606;2023-05-07T01:56:42;12.80;99.90
39951;DHT22;25629;51.444;-2.606;2023-05-07T01:59:07;12.80;99.90
39951;DHT22;25629;51.444;-2.606;2023-05-07T02:01:33;12.80;99.90
39951;DHT22;25629;51.444;-2.606;2023-05-07T02:03:58;12.90;99.90
39951;DHT22;25629;51.444;-2.606;2023-05-07T02:06:24;12.90;99.90
39951;DHT22;25629;51.444;-2.606;2023-05-07T02:08:50;12.90;99.90
39951;DHT22;25629;51.444;-2.606;2023-05-07T02:11:15;13.00;99.90
39951;DHT22;25629;51.444;-2.606;2023-05-07T02:13:41;13.00;99.90
39951;DHT22;25629;51.444;-2.606;2023-05-07T02:16:07;13.00;99.90
39951;DHT22;25629;51.444;-2.606;2023-05-07T02:18:32;13.00;99.90
39951;DHT22;25629;51.444;-2.606;2023-05-07T02:20:58;13.00;99.90
39951;DHT22;25629;51.444;-2.606;2023-05-07T02:23:24;12.90;99.90
39951;DHT22;25629;51.444;-2.606;2023-05-07T02:25:51;12.90;99.90
39951;DHT22;25629;51.444;-2.606;2023-05-07T02:28:16;12.90;99.90
39951;DHT22;25629;51.444;-2.606;2023-05-07T02:30:42;12.90;99.90
39951;DHT22;25629;51.444;-2.606;2023-05-07T02:33:07;12.90;99.90
39951;DHT22;25629;51.444;-2.606;2023-05-07T02:35:33;12.90;99.90
39951;DHT22;25629;51.444;-2.606;2023-05-07T02:37:59;13.00;99.90
39951;DHT22;25629;51.444;-2.606;2023-05-07T02:40:25;12.90;99.90
39951;DHT22;25629;51.444;-2.606;2023-05-07T02:42:50;12.80;99.90
39951;DHT22;25629;51.444;-2.606;2023-05-07T02:45:16;12.90;99.90
39951;DHT22;25629;51.444;-2.606;2023-05-07T02:47:42;12.80;99.90
39951;DHT22;25629;51.444;-2.606;2023-05-07T02:50:07;12.90;99.90
39951;DHT22;25629;51.444;-2.606;2023-05-07T02:52:33;12.90;99.90
39951;DHT22;25629;51.444;-2.606;2023-05-07T02:54:58;12.90;99.90
39951;DHT22;25629;51.444;-2.606;2023-05-07T02:57:24;12.90;99.90
39951;DHT22;25629;51.444;-2.606;2023-05-07T02:59:49;13.00;99.90
39951;DHT22;25629;51.444;-2.606;2023-05-07T03:02:16;13.00;99.90
39951;DHT22;25629;51.444;-2.606;2023-05-07T03:04:41;13.00;99.90
39951;DHT22;25629;51.444;-2.606;2023-05-07T03:07:07;13.00;99.90
39951;DHT22;25629;51.444;-2.606;2023-05-07T03:09:33;13.00;99.90
39951;DHT22;25629;51.444;-2.606;2023-05-07T03:11:58;13.00;99.90
39951;DHT22;25629;51.444;-2.606;2023-05-07T03:14:24;13.00;99.90
39951;DHT22;25629;51.444;-2.606;2023-05-07T03:16:50;13.10;99.90
39951;DHT22;25629;51.444;-2.606;2023-05-07T03:19:15;13.10;99.90
39951;DHT22;25629;51.444;-2.606;2023-05-07T03:21:41;13.10;99.90
39951;DHT22;25629;51.444;-2.606;2023-05-07T03:24:06;13.10;99.90
39951;DHT22;25629;51.444;-2.606;2023-05-07T03:26:32;13.10;99.90
39951;DHT22;25629;51.444;-2.606;2023-05-07T03:28:58;13.10;99.90
39951;DHT22;25629;51.444;-2.606;2023-05-07T03:31:23;13.10;99.90
39951;DHT22;25629;51.444;-2.606;2023-05-07T03:33:55;13.10;99.90
39951;DHT22;25629;51.444;-2.606;2023-05-07T03:36:21;13.10;99.90
39951;DHT22;25629;51.444;-2.606;2023-05-07T03:38:47;13.00;99.90
39951;DHT22;25629;51.444;-2.606;2023-05-07T03:41:13;13.00;99.90
39951;DHT22;25629;51.444;-2.606;2023-05-07T03:43:39;13.00;99.90
39951;DHT22;25629;51.444;-2.606;2023-05-07T03:46:04;13.00;99.90
39951;DHT22;25629;51.444;-2.606;2023-05-07T03:48:30;13.00;99.90
39951;DHT22;25629;51.444;-2.606;2023-05-07T03:50:57;13.00;99.90
39951;DHT22;25629;51.444;-2.606;2023-05-07T03:53:22;12.90;99.90
39951;DHT22;25629;51.444;-2.606;2023-05-07T03:55:48;12.90;99.90
39951;DHT22;25629;51.444;-2.606;2023-05-07T03:58:13;12.80;99.90
39951;DHT22;25629;51.444;-2.606;2023-05-07T04:00:39;12.80;99.90
39951;DHT22;25629;51.444;-2.606;2023-05-07T04:03:06;12.80;99.90
39951;DHT22;25629;51.444;-2.606;2023-05-07T04:05:31;12.80;99.90
39951;DHT22;25629;51.444;-2.606;2023-05-07T04:07:57;12.80;99.90
39951;DHT22;25629;51.444;-2.606;2023-05-07T04:10:23;12.70;99.90
39951;DHT22;25629;51.444;-2.606;2023-05-07T04:12:48;12.70;99.90
39951;DHT22;25629;51.444;-2.606;2023-05-07T04:15:14;12.70;99.90
39951;DHT22;25629;51.444;-2.606;2023-05-07T04:17:40;12.70;99.90
39951;DHT22;25629;51.444;-2.606;2023-05-07T04:20:08;12.70;99.90
39951;DHT22;25629;51.444;-2.606;2023-05-07T04:22:34;12.70;99.90
39951;DHT22;25629;51.444;-2.606;2023-05-07T04:25:00;12.60;99.90
39951;DHT22;25629;51.444;-2.606;2023-05-07T04:27:25;12.60;99.90
39951;DHT22;25629;51.444;-2.606;2023-05-07T04:29:51;12.50;99.90
39951;DHT22;25629;51.444;-2.606;2023-05-07T04:32:21;12.50;99.90
39951;DHT22;25629;51.444;-2.606;2023-05-07T04:34:46;12.40;99.90
39951;DHT22;25629;51.444;-2.606;2023-05-07T04:37:12;12.40;99.90
39951;DHT22;25629;51.444;-2.606;2023-05-07T04:39:37;12.40;99.90
39951;DHT22;25629;51.444;-2.606;2023-05-07T04:42:03;12.50;99.90
39951;DHT22;25629;51.444;-2.606;2023-05-07T04:44:28;12.50;99.90
39951;DHT22;25629;51.444;-2.606;2023-05-07T04:46:56;12.50;99.90
39951;DHT22;25629;51.444;-2.606;2023-05-07T04:49:22;12.50;99.90
39951;DHT22;25629;51.444;-2.606;2023-05-07T04:51:47;12.50;99.90
39951;DHT22;25629;51.444;-2.606;2023-05-07T04:54:13;12.40;99.90
39951;DHT22;25629;51.444;-2.606;2023-05-07T04:56:39;12.40;99.90
39951;DHT22;25629;51.444;-2.606;2023-05-07T04:59:04;12.40;99.90
39951;DHT22;25629;51.444;-2.606;2023-05-07T05:01:30;12.30;99.90
39951;DHT22;25629;51.444;-2.606;2023-05-07T05:03:56;12.30;99.90
39951;DHT22;25629;51.444;-2.606;2023-05-07T05:06:22;12.30;99.90
39951;DHT22;25629;51.444;-2.606;2023-05-07T05:08:47;12.30;99.90
39951;DHT22;25629;51.444;-2.606;2023-05-07T05:11:13;12.30;99.90
39951;DHT22;25629;51.444;-2.606;2023-05-07T05:13:38;12.30;99.90
39951;DHT22;25629;51.444;-2.606;2023-05-07T05:16:04;12.30;99.90
39951;DHT22;25629;51.444;-2.606;2023-05-07T05:18:30;12.20;99.90
39951;DHT22;25629;51.444;-2.606;2023-05-07T05:20:55;12.20;99.90
39951;DHT22;25629;51.444;-2.606;2023-05-07T05:23:21;12.30;99.90
39951;DHT22;25629;51.444;-2.606;2023-05-07T05:25:47;12.30;99.90
39951;DHT22;25629;51.444;-2.606;2023-05-07T05:28:12;12.30;99.90
39951;DHT22;25629;51.444;-2.606;2023-05-07T05:30:38;12.30;99.90
39951;DHT22;25629;51.444;-2.606;2023-05-07T05:33:04;12.30;99.90
39951;DHT22;25629;51.444;-2.606;2023-05-07T05:35:29;12.30;99.90
39951;DHT22;25629;51.444;-2.606;2023-05-07T05:37:55;12.30;99.90
39951;DHT22;25629;51.444;-2.606;2023-05-07T05:40:21;12.30;99.90
39951;DHT22;25629;51.444;-2.606;2023-05-07T05:42:47;12.40;99.90
39951;DHT22;25629;51.444;-2.606;2023-05-07T05:45:12;12.40;99.90
39951;DHT22;25629;51.444;-2.606;2023-05-07T05:47:38;12.50;99.90
39951;DHT22;25629;51.444;-2.606;2023-05-07T05:50:05;12.40;99.90
39951;DHT22;25629;51.444;-2.606;2023-05-07T05:52:31;12.50;99.90
39951;DHT22;25629;51.444;-2.606;2023-05-07T05:54:57;12.50;99.90
39951;DHT22;25629;51.444;-2.606;2023-05-07T05:57:22;12.50;99.90
39951;DHT22;25629;51.444;-2.606;2023-05-07T05:59:48;12.40;99.90
39951;DHT22;25629;51.444;-2.606;2023-05-07T06:02:13;12.40;99.90
39951;DHT22;25629;51.444;-2.606;2023-05-07T06:04:39;12.50;99.90
39951;DHT22;25629;51.444;-2.606;2023-05-07T06:07:05;12.50;99.90
39951;DHT22;25629;51.444;-2.606;2023-05-07T06:09:30;12.60;99.90
39951;DHT22;25629;51.444;-2.606;2023-05-07T06:11:56;12.60;99.90
39951;DHT22;25629;51.444;-2.606;2023-05-07T06:14:21;12.60;99.90
39951;DHT22;25629;51.444;-2.606;2023-05-07T06:16:47;12.70;99.90
39951;DHT22;25629;51.444;-2.606;2023-05-07T06:19:13;12.70;99.90
39951;DHT22;25629;51.444;-2.606;2023-05-07T06:21:38;12.70;99.90
39951;DHT22;25629;51.444;-2.606;2023-05-07T06:24:04;12.80;99.90
39951;DHT22;25629;51.444;-2.606;2023-05-07T06:26:30;12.90;99.90
39951;DHT22;25629;51.444;-2.606;2023-05-07T06:28:56;12.90;99.90
39951;DHT22;25629;51.444;-2.606;2023-05-07T06:31:21;13.00;99.90
39951;DHT22;25629;51.444;-2.606;2023-05-07T06:33:47;13.00;99.90
39951;DHT22;25629;51.444;-2.606;2023-05-07T06:36:13;13.00;99.90
39951;DHT22;25629;51.444;-2.606;2023-05-07T06:38:39;13.10;99.90
39951;DHT22;25629;51.444;-2.606;2023-05-07T06:41:05;13.10;99.90
39951;DHT22;25629;51.444;-2.606;2023-05-07T06:43:31;13.10;99.90
39951;DHT22;25629;51.444;-2.606;2023-05-07T06:45:56;13.10;99.90
39951;DHT22;25629;51.444;-2.606;2023-05-07T06:48:22;13.20;99.90
39951;DHT22;25629;51.444;-2.606;2023-05-07T06:50:48;13.40;99.90
39951;DHT22;25629;51.444;-2.606;2023-05-07T06:53:13;13.50;97.50
39951;DHT22;25629;51.444;-2.606;2023-05-07T06:55:39;13.40;93.80
39951;DHT22;25629;51.444;-2.606;2023-05-07T06:58:04;13.50;94.40
39951;DHT22;25629;51.444;-2.606;2023-05-07T07:00:31;13.50;93.00
39951;DHT22;25629;51.444;-2.606;2023-05-07T07:02:56;13.50;91.50
39951;DHT22;25629;51.444;-2.606;2023-05-07T07:05:22;13.70;92.90
39951;DHT22;25629;51.444;-2.606;2023-05-07T07:07:48;13.80;91.00
39951;DHT22;25629;51.444;-2.606;2023-05-07T07:10:21;14.00;86.80
39951;DHT22;25629;51.444;-2.606;2023-05-07T07:12:46;14.00;70.60
39951;DHT22;25629;51.444;-2.606;2023-05-07T07:15:12;13.90;69.60
39951;DHT22;25629;51.444;-2.606;2023-05-07T07:17:38;14.00;69.90
39951;DHT22;25629;51.444;-2.606;2023-05-07T07:20:04;14.20;67.70
39951;DHT22;25629;51.444;-2.606;2023-05-07T07:22:29;14.40;60.10
39951;DHT22;25629;51.444;-2.606;2023-05-07T07:24:55;14.50;51.10
39951;DHT22;25629;51.444;-2.606;2023-05-07T07:27:20;14.60;44.50
39951;DHT22;25629;51.444;-2.606;2023-05-07T07:29:46;14.70;40.70
39951;DHT22;25629;51.444;-2.606;2023-05-07T07:32:12;14.80;34.60
39951;DHT22;25629;51.444;-2.606;2023-05-07T07:34:37;14.70;34.20
39951;DHT22;25629;51.444;-2.606;2023-05-07T07:37:03;14.70;30.10
39951;DHT22;25629;51.444;-2.606;2023-05-07T07:39:34;14.80;29.80
39951;DHT22;25629;51.444;-2.606;2023-05-07T07:42:00;14.90;27.10
39951;DHT22;25629;51.444;-2.606;2023-05-07T07:44:27;15.10;30.20
39951;DHT22;25629;51.444;-2.606;2023-05-07T07:46:52;15.50;12.20
39951;DHT22;25629;51.444;-2.606;2023-05-07T07:49:18;15.60;1.00
39951;DHT22;25629;51.444;-2.606;2023-05-07T07:51:43;15.60;1.00
39951;DHT22;25629;51.444;-2.606;2023-05-07T07:54:09;15.80;1.00
39951;DHT22;25629;51.444;-2.606;2023-05-07T07:56:34;15.60;1.00
39951;DHT22;25629;51.444;-2.606;2023-05-07T07:59:00;15.70;1.00
39951;DHT22;25629;51.444;-2.606;2023-05-07T08:01:26;15.60;1.00
39951;DHT22;25629;51.444;-2.606;2023-05-07T08:03:51;15.80;1.00
39951;DHT22;25629;51.444;-2.606;2023-05-07T08:06:17;15.80;1.00
39951;DHT22;25629;51.444;-2.606;2023-05-07T08:08:43;15.70;1.00
39951;DHT22;25629;51.444;-2.606;2023-05-07T08:11:08;15.60;1.00
39951;DHT22;25629;51.444;-2.606;2023-05-07T08:13:34;15.70;1.00
39951;DHT22;25629;51.444;-2.606;2023-05-07T08:16:00;15.80;1.00
39951;DHT22;25629;51.444;-2.606;2023-05-07T08:18:25;16.00;1.00
39951;DHT22;25629;51.444;-2.606;2023-05-07T08:20:51;15.90;1.00
39951;DHT22;25629;51.444;-2.606;2023-05-07T08:23:17;15.80;1.00
39951;DHT22;25629;51.444;-2.606;2023-05-07T08:25:43;15.70;1.00
39951;DHT22;25629;51.444;-2.606;2023-05-07T08:28:08;15.70;1.00
39951;DHT22;25629;51.444;-2.606;2023-05-07T08:30:34;16.00;1.00
39951;DHT22;25629;51.444;-2.606;2023-05-07T08:33:00;16.10;1.00
39951;DHT22;25629;51.444;-2.606;2023-05-07T08:35:25;16.20;1.00
39951;DHT22;25629;51.444;-2.606;2023-05-07T08:37:52;16.10;1.00
39951;DHT22;25629;51.444;-2.606;2023-05-07T08:40:18;16.10;1.00
39951;DHT22;25629;51.444;-2.606;2023-05-07T08:42:43;16.30;1.00
39951;DHT22;25629;51.444;-2.606;2023-05-07T08:45:09;16.30;1.00
39951;DHT22;25629;51.444;-2.606;2023-05-07T08:47:44;16.10;1.00
39951;DHT22;25629;51.444;-2.606;2023-05-07T08:50:11;16.00;1.00
39951;DHT22;25629;51.444;-2.606;2023-05-07T08:52:37;16.00;1.00
39951;DHT22;25629;51.444;-2.606;2023-05-07T08:55:04;16.00;1.00
39951;DHT22;25629;51.444;-2.606;2023-05-07T08:57:29;16.00;1.00
39951;DHT22;25629;51.444;-2.606;2023-05-07T08:59:55;15.90;1.00
39951;DHT22;25629;51.444;-2.606;2023-05-07T09:02:21;16.10;1.00
39951;DHT22;25629;51.444;-2.606;2023-05-07T09:04:46;16.30;99.90
39951;DHT22;25629;51.444;-2.606;2023-05-07T09:07:12;16.30;99.90
39951;DHT22;25629;51.444;-2.606;2023-05-07T09:09:37;16.50;99.90
39951;DHT22;25629;51.444;-2.606;2023-05-07T09:12:03;16.60;99.90
39951;DHT22;25629;51.444;-2.606;2023-05-07T09:14:29;16.70;99.90
39951;DHT22;25629;51.444;-2.606;2023-05-07T09:16:56;16.70;99.90
39951;DHT22;25629;51.444;-2.606;2023-05-07T09:19:22;16.60;99.90
39951;DHT22;25629;51.444;-2.606;2023-05-07T09:21:48;16.70;99.90
39951;DHT22;25629;51.444;-2.606;2023-05-07T09:24:15;17.00;99.90
39951;DHT22;25629;51.444;-2.606;2023-05-07T09:26:41;17.10;99.90
39951;DHT22;25629;51.444;-2.606;2023-05-07T09:29:07;17.10;99.90
39951;DHT22;25629;51.444;-2.606;2023-05-07T09:31:36;17.20;1.00
39951;DHT22;25629;51.444;-2.606;2023-05-07T09:34:04;17.10;1.00
39951;DHT22;25629;51.444;-2.606;2023-05-07T09:36:31;17.20;1.00
39951;DHT22;25629;51.444;-2.606;2023-05-07T09:38:59;17.10;99.90
39951;DHT22;25629;51.444;-2.606;2023-05-07T09:41:24;17.20;1.00
39951;DHT22;25629;51.444;-2.606;2023-05-07T09:43:53;17.30;99.90
39951;DHT22;25629;51.444;-2.606;2023-05-07T09:46:19;17.40;99.90
39951;DHT22;25629;51.444;-2.606;2023-05-07T09:48:49;17.40;99.90
39951;DHT22;25629;51.444;-2.606;2023-05-07T09:54:02;17.70;1.00
39951;DHT22;25629;51.444;-2.606;2023-05-07T09:56:29;17.80;99.90
39951;DHT22;25629;51.444;-2.606;2023-05-07T09:58:55;17.70;99.90
39951;DHT22;25629;51.444;-2.606;2023-05-07T10:01:21;17.70;1.00
39951;DHT22;25629;51.444;-2.606;2023-05-07T10:03:47;17.70;99.90
39951;DHT22;25629;51.444;-2.606;2023-05-07T10:06:15;17.70;1.00
39951;DHT22;25629;51.444;-2.606;2023-05-07T10:08:42;17.40;99.90
39951;DHT22;25629;51.444;-2.606;2023-05-07T10:11:08;17.20;16.20
39951;DHT22;25629;51.444;-2.606;2023-05-07T10:13:35;17.10;99.90
39951;DHT22;25629;51.444;-2.606;2023-05-07T10:16:03;17.30;1.00
39951;DHT22;25629;51.444;-2.606;2023-05-07T10:18:30;17.90;99.90
39951;DHT22;25629;51.444;-2.606;2023-05-07T10:21:07;18.40;99.90
39951;DHT22;25629;51.444;-2.606;2023-05-07T10:23:33;18.50;99.90
39951;DHT22;25629;51.444;-2.606;2023-05-07T10:26:00;18.30;99.90
39951;DHT22;25629;51.444;-2.606;2023-05-07T10:28:27;18.10;99.90
39951;DHT22;25629;51.444;-2.606;2023-05-07T10:30:59;17.90;99.90
39951;DHT22;25629;51.444;-2.606;2023-05-07T10:33:28;17.70;1.00
39951;DHT22;25629;51.444;-2.606;2023-05-07T10:35:58;18.00;99.90
39951;DHT22;25629;51.444;-2.606;2023-05-07T10:38:25;18.40;1.00
39951;DHT22;25629;51.444;-2.606;2023-05-07T10:40:52;18.60;99.90
39951;DHT22;25629;51.444;-2.606;2023-05-07T10:43:17;18.40;74.60
39951;DHT22;25629;51.444;-2.606;2023-05-07T10:45:43;18.10;54.10
39951;DHT22;25629;51.444;-2.606;2023-05-07T10:48:15;18.10;99.90
39951;DHT22;25629;51.444;-2.606;2023-05-07T10:50:41;17.90;1.00
39951;DHT22;25629;51.444;-2.606;2023-05-07T10:55:42;17.50;99.90
39951;DHT22;25629;51.444;-2.606;2023-05-07T11:00:46;17.80;99.90
39951;DHT22;25629;51.444;-2.606;2023-05-07T11:03:11;18.30;99.90
39951;DHT22;25629;51.444;-2.606;2023-05-07T11:05:37;18.10;1.00
39951;DHT22;25629;51.444;-2.606;2023-05-07T11:08:03;18.10;1.00
39951;DHT22;25629;51.444;-2.606;2023-05-07T11:13:14;18.20;99.90
39951;DHT22;25629;51.444;-2.606;2023-05-07T11:15:46;18.40;1.00
39951;DHT22;25629;51.444;-2.606;2023-05-07T11:18:16;18.40;1.00
39951;DHT22;25629;51.444;-2.606;2023-05-07T11:20:49;18.30;99.90
39951;DHT22;25629;51.444;-2.606;2023-05-07T11:25:59;18.50;99.90
39951;DHT22;25629;51.444;-2.606;2023-05-07T11:28:27;18.40;1.00
39951;DHT22;25629;51.444;-2.606;2023-05-07T11:30:52;18.50;99.90
39951;DHT22;25629;51.444;-2.606;2023-05-07T11:33:18;18.70;1.00
39951;DHT22;25629;51.444;-2.606;2023-05-07T11:35:44;18.90;1.00
39951;DHT22;25629;51.444;-2.606;2023-05-07T11:38:11;19.10;1.00
39951;DHT22;25629;51.444;-2.606;2023-05-07T11:40:50;18.90;1.00
39951;DHT22;25629;51.444;-2.606;2023-05-07T11:43:16;19.00;99.90
39951;DHT22;25629;51.444;-2.606;2023-05-07T11:45:42;19.00;99.90
39951;DHT22;25629;51.444;-2.606;2023-05-07T11:48:07;19.30;99.90
39951;DHT22;25629;51.444;-2.606;2023-05-07T11:50:33;19.80;90.80
39951;DHT22;25629;51.444;-2.606;2023-05-07T11:52:58;20.10;1.00
39951;DHT22;25629;51.444;-2.606;2023-05-07T11:55:24;20.50;99.90
39951;DHT22;25629;51.444;-2.606;2023-05-07T11:57:51;20.70;99.90
39951;DHT22;25629;51.444;-2.606;2023-05-07T12:00:17;20.40;99.90
39951;DHT22;25629;51.444;-2.606;2023-05-07T12:02:43;20.60;99.90
39951;DHT22;25629;51.444;-2.606;2023-05-07T12:05:10;20.80;99.90
39951;DHT22;25629;51.444;-2.606;2023-05-07T12:07:35;20.60;99.90
39951;DHT22;25629;51.444;-2.606;2023-05-07T12:10:07;20.20;99.90
39951;DHT22;25629;51.444;-2.606;2023-05-07T12:12:39;19.90;99.90
39951;DHT22;25629;51.444;-2.606;2023-05-07T12:15:07;20.00;99.90
39951;DHT22;25629;51.444;-2.606;2023-05-07T12:17:33;19.90;99.90
39951;DHT22;25629;51.444;-2.606;2023-05-07T12:19:58;19.70;99.90
39951;DHT22;25629;51.444;-2.606;2023-05-07T12:22:24;19.90;99.90
39951;DHT22;25629;51.444;-2.606;2023-05-07T12:24:56;20.10;99.90
39951;DHT22;25629;51.444;-2.606;2023-05-07T12:27:22;19.90;99.90
39951;DHT22;25629;51.444;-2.606;2023-05-07T12:29:48;19.80;99.90
39951;DHT22;25629;51.444;-2.606;2023-05-07T12:32:15;19.70;99.90
39951;DHT22;25629;51.444;-2.606;2023-05-07T12:34:41;19.90;99.90
39951;DHT22;25629;51.444;-2.606;2023-05-07T12:37:06;20.20;99.90
39951;DHT22;25629;51.444;-2.606;2023-05-07T12:39:32;20.40;99.90
39951;DHT22;25629;51.444;-2.606;2023-05-07T12:41:59;20.50;99.90
39951;DHT22;25629;51.444;-2.606;2023-05-07T12:44:25;20.90;66.70
39951;DHT22;25629;51.444;-2.606;2023-05-07T12:46:54;21.20;20.60
39951;DHT22;25629;51.444;-2.606;2023-05-07T12:49:19;21.40;5.70
39951;DHT22;25629;51.444;-2.606;2023-05-07T12:51:48;21.40;1.00
39951;DHT22;25629;51.444;-2.606;2023-05-07T12:54:27;21.30;1.00
39951;DHT22;25629;51.444;-2.606;2023-05-07T12:56:59;21.60;1.00
39951;DHT22;25629;51.444;-2.606;2023-05-07T12:59:32;21.60;1.00
39951;DHT22;25629;51.444;-2.606;2023-05-07T13:01:57;21.50;1.00
39951;DHT22;25629;51.444;-2.606;2023-05-07T13:04:24;21.10;1.00
39951;DHT22;25629;51.444;-2.606;2023-05-07T13:06:49;21.10;1.00
39951;DHT22;25629;51.444;-2.606;2023-05-07T13:09:15;21.50;1.00
39951;DHT22;25629;51.444;-2.606;2023-05-07T13:11:41;22.10;1.00
39951;DHT22;25629;51.444;-2.606;2023-05-07T13:14:06;22.30;1.00
39951;DHT22;25629;51.444;-2.606;2023-05-07T13:16:32;22.20;1.00
39951;DHT22;25629;51.444;-2.606;2023-05-07T13:18:57;22.40;1.00
39951;DHT22;25629;51.444;-2.606;2023-05-07T13:21:23;22.70;1.00
39951;DHT22;25629;51.444;-2.606;2023-05-07T13:23:49;22.70;1.00
39951;DHT22;25629;51.444;-2.606;2023-05-07T13:26:14;22.60;1.00
39951;DHT22;25629;51.444;-2.606;2023-05-07T13:28:40;23.10;1.00
39951;DHT22;25629;51.444;-2.606;2023-05-07T13:31:05;23.50;1.00
39951;DHT22;25629;51.444;-2.606;2023-05-07T13:33:31;23.00;1.00
39951;DHT22;25629;51.444;-2.606;2023-05-07T13:35:57;22.60;1.00
39951;DHT22;25629;51.444;-2.606;2023-05-07T13:38:22;22.50;1.00
39951;DHT22;25629;51.444;-2.606;2023-05-07T13:40:48;22.60;1.00
39951;DHT22;25629;51.444;-2.606;2023-05-07T13:43:13;22.90;1.00
39951;DHT22;25629;51.444;-2.606;2023-05-07T13:45:39;23.40;1.00
39951;DHT22;25629;51.444;-2.606;2023-05-07T13:48:05;23.60;1.00
39951;DHT22;25629;51.444;-2.606;2023-05-07T13:50:30;23.60;1.00
39951;DHT22;25629;51.444;-2.606;2023-05-07T13:52:56;24.40;1.00
39951;DHT22;25629;51.444;-2.606;2023-05-07T13:55:23;25.30;99.90
39951;DHT22;25629;51.444;-2.606;2023-05-07T13:57:54;25.20;99.90
39951;DHT22;25629;51.444;-2.606;2023-05-07T14:00:21;25.10;99.90
39951;DHT22;25629;51.444;-2.606;2023-05-07T14:02:46;25.40;99.90
39951;DHT22;25629;51.444;-2.606;2023-05-07T14:05:12;25.70;99.90
39951;DHT22;25629;51.444;-2.606;2023-05-07T14:07:38;25.60;99.90
39951;DHT22;25629;51.444;-2.606;2023-05-07T14:10:04;25.00;99.90
39951;DHT22;25629;51.444;-2.606;2023-05-07T14:12:30;24.90;99.90
39951;DHT22;25629;51.444;-2.606;2023-05-07T14:14:56;24.30;99.90
39951;DHT22;25629;51.444;-2.606;2023-05-07T14:17:22;23.10;99.90
39951;DHT22;25629;51.444;-2.606;2023-05-07T14:19:50;23.00;99.90
39951;DHT22;25629;51.444;-2.606;2023-05-07T14:22:16;23.30;99.90
39951;DHT22;25629;51.444;-2.606;2023-05-07T14:24:41;22.80;99.90
39951;DHT22;25629;51.444;-2.606;2023-05-07T14:27:07;22.50;99.90
39951;DHT22;25629;51.444;-2.606;2023-05-07T14:29:32;22.10;99.90
39951;DHT22;25629;51.444;-2.606;2023-05-07T14:32:00;22.30;99.90
39951;DHT22;25629;51.444;-2.606;2023-05-07T14:34:26;21.70;99.90
39951;DHT22;25629;51.444;-2.606;2023-05-07T14:36:51;21.80;99.90
39951;DHT22;25629;51.444;-2.606;2023-05-07T14:39:17;22.20;99.90
39951;DHT22;25629;51.444;-2.606;2023-05-07T14:41:43;22.80;99.90
39951;DHT22;25629;51.444;-2.606;2023-05-07T14:44:08;23.10;99.90
39951;DHT22;25629;51.444;-2.606;2023-05-07T14:46:34;23.10;99.90
39951;DHT22;25629;51.444;-2.606;2023-05-07T14:48:59;22.70;99.90
39951;DHT22;25629;51.444;-2.606;2023-05-07T14:51:25;22.10;99.90
39951;DHT22;25629;51.444;-2.606;2023-05-07T14:53:53;22.10;99.90
39951;DHT22;25629;51.444;-2.606;2023-05-07T14:56:18;22.10;99.90
39951;DHT22;25629;51.444;-2.606;2023-05-07T14:58:45;21.80;99.90
39951;DHT22;25629;51.444;-2.606;2023-05-07T15:01:11;22.20;99.90
39951;DHT22;25629;51.444;-2.606;2023-05-07T15:03:37;23.30;99.90
39951;DHT22;25629;51.444;-2.606;2023-05-07T15:06:03;23.90;99.90
39951;DHT22;25629;51.444;-2.606;2023-05-07T15:08:28;24.40;99.90
39951;DHT22;25629;51.444;-2.606;2023-05-07T15:10:54;24.70;99.90
39951;DHT22;25629;51.444;-2.606;2023-05-07T15:13:20;25.20;99.90
39951;DHT22;25629;51.444;-2.606;2023-05-07T15:15:46;24.90;99.90
39951;DHT22;25629;51.444;-2.606;2023-05-07T15:18:11;25.10;99.90
39951;DHT22;25629;51.444;-2.606;2023-05-07T15:20:37;25.80;99.90
39951;DHT22;25629;51.444;-2.606;2023-05-07T15:23:02;26.20;99.90
39951;DHT22;25629;51.444;-2.606;2023-05-07T15:25:30;26.50;99.90
39951;DHT22;25629;51.444;-2.606;2023-05-07T15:27:58;26.30;99.90